Edgerton, Missouri
Current Conditions -  °F | °C
As of 8:53 AM on Monday 22 Dec 2014 (Local Time) from KMCI Reporting Station
Light Rain Light Rain  
Wind Chill: 36°   Ceiling: 500
Heat Index: 42°   Visibility: 2mi
Dew Point: 41°   Wind: 10mph
Humidity: 96%   Direction: 160°SSE
Pressure: 29.57"   Gusts: NA
Location:  39.5°N, 94.63°W
Report Text: KMCI 221453Z 16009KT 2SM -RA BR OVC005 06/05 A2957 RMK AO2 SFC VIS 3 SLP016 P0001 60003 T00560050 58009
Loading
Personal Weather Stations






























Interactive Weather Map New forecast layout! Learn more

10-Day Weather Forecast

Advertisements
Track Severe Weather on mobile